Time;durP1;ratioP1;P1;durP2;ratioP2;P2;SDS_P1;SDS_P2;PMS_P1;PMS_P2;Temp;Humidity;BMP_temperature;BMP_pressure;BME280_temperature;BME280_humidity;BME280_pressure;Samples;Min_cycle;Max_cycle;Signal;HPM_P1;HPM_P2
2022/08/15 05:03:38;;;;;;;4.60;1.88;;;21.30;86.80;;;;;;5019594;23;20062;-73
2022/08/15 05:06:22;;;;;;;5.72;2.38;;;21.30;86.80;;;;;;4965268;29;20062;-72
2022/08/15 05:09:07;;;;;;;3.10;2.03;;;21.30;87.40;;;;;;4966191;29;20034;-73
2022/08/15 05:11:51;;;;;;;4.45;1.88;;;21.20;87.40;;;;;;4946596;29;20082;-72
2022/08/15 05:14:18;;;;;;;3.10;1.95;;;21.20;87.50;;;;;;4946238;29;20051;-72
2022/08/15 05:16:44;;;;;;;5.13;2.00;;;21.30;87.70;;;;;;4929683;29;20186;-73
2022/08/15 05:19:10;;;;;;;3.63;2.20;;;21.20;87.60;;;;;;4958652;29;20061;-73
2022/08/15 05:21:38;;;;;;;4.60;2.15;;;21.20;87.70;;;;;;4948289;29;20309;-73
2022/08/15 05:24:05;;;;;;;2.95;1.65;;;21.20;87.50;;;;;;4966443;29;20075;-72
2022/08/15 05:26:32;;;;;;;5.32;1.95;;;21.20;87.60;;;;;;4948949;29;20046;-72
2022/08/15 05:28:58;;;;;;;5.38;2.22;;;21.30;87.40;;;;;;4948283;29;20027;-73
2022/08/15 05:31:27;;;;;;;2.85;1.65;;;21.30;87.10;;;;;;4948787;29;20241;-71
2022/08/15 05:33:55;;;;;;;5.05;2.30;;;21.30;87.40;;;;;;4948139;29;20023;-73
2022/08/15 05:36:22;;;;;;;3.13;1.80;;;21.20;86.90;;;;;;4948712;29;20034;-72
2022/08/15 05:38:53;;;;;;;4.78;1.70;;;21.20;87.00;;;;;;4948126;29;20019;-71
2022/08/15 05:41:32;;;;;;;3.40;1.63;;;21.20;87.20;;;;;;4948719;29;20106;-73
2022/08/15 05:44:11;;;;;;;3.70;1.65;;;21.30;87.00;;;;;;4948019;29;20027;-72
2022/08/15 05:46:44;;;;;;;3.15;1.73;;;21.40;86.60;;;;;;4947886;29;20027;-72
2022/08/15 05:49:32;;;;;;;2.70;1.40;;;21.30;87.00;;;;;;4965730;29;20317;-73
2022/08/15 05:52:06;;;;;;;3.08;1.50;;;21.30;87.20;;;;;;4947720;29;20034;-71
2022/08/15 05:55:10;;;;;;;3.72;1.70;;;21.30;87.40;;;;;;4965240;29;20290;-72
2022/08/15 05:57:43;;;;;;;4.65;1.55;;;21.20;87.40;;;;;;4965779;29;20046;-73
2022/08/15 06:00:13;;;;;;;3.15;1.60;;;21.10;87.70;;;;;;4948222;29;20035;-73
2022/08/15 06:02:47;;;;;;;5.93;2.38;;;21.10;87.80;;;;;;4964799;29;20301;-72
2022/08/15 06:05:48;;;;;;;6.28;2.30;;;21.10;88.40;;;;;;4948078;29;20086;-71
2022/08/15 06:08:27;;;;;;;4.75;2.20;;;21.10;88.40;;;;;;4969892;28;20031;-73
2022/08/15 06:11:03;;;;;;;5.18;2.15;;;21.00;88.20;;;;;;4956269;29;20038;-71
2022/08/15 06:13:38;;;;;;;4.78;1.65;;;21.10;88.10;;;;;;4931622;29;20051;-73
2022/08/15 06:16:30;;;;;;;2.95;1.35;;;21.10;88.10;;;;;;4929051;29;20305;-72
2022/08/15 06:19:06;;;;;;;4.65;1.88;;;21.10;87.80;;;;;;4933118;29;20194;-72
2022/08/15 06:22:00;;;;;;;3.40;1.73;;;21.20;87.70;;;;;;4946501;29;20228;-71
2022/08/15 06:24:49;;;;;;;3.08;1.60;;;21.20;87.60;;;;;;4946600;29;20050;-72
2022/08/15 06:27:42;;;;;;;3.97;1.67;;;21.40;88.40;;;;;;4946413;29;20038;-72
2022/08/15 06:30:17;;;;;;;3.10;1.77;;;21.40;88.90;;;;;;4946531;29;20023;-72
2022/08/15 06:33:03;;;;;;;4.03;1.77;;;21.50;88.80;;;;;;4961823;29;20031;-72
2022/08/15 06:35:49;;;;;;;3.28;1.60;;;21.50;89.20;;;;;;4960185;29;20138;-72
2022/08/15 06:38:57;;;;;;;3.35;1.55;;;21.50;88.60;;;;;;4943336;29;20199;-70
2022/08/15 06:41:46;;;;;;;3.47;1.70;;;21.60;88.00;;;;;;4943143;29;20039;-72
2022/08/15 06:44:16;;;;;;;3.47;1.83;;;21.50;87.90;;;;;;4927391;29;20023;-73
2022/08/15 06:46:56;;;;;;;;;;;21.50;88.00;;;;;;4927775;29;20027;-72
2022/08/15 06:49:23;;;;;;;6.20;1.80;;;21.60;87.80;;;;;;4927395;29;19929;-72
2022/08/15 06:51:49;;;;;;;2.80;1.50;;;21.70;87.20;;;;;;4944048;29;20103;-73
2022/08/15 06:54:22;;;;;;;3.03;1.75;;;21.60;86.10;;;;;;4944050;29;20204;-74
2022/08/15 06:57:02;;;;;;;2.78;1.60;;;21.60;86.30;;;;;;4943532;29;20047;-72
2022/08/15 06:59:46;;;;;;;3.55;1.42;;;21.50;86.00;;;;;;4961046;29;20023;-73
2022/08/15 07:02:35;;;;;;;3.58;1.35;;;21.50;86.50;;;;;;4945230;29;20054;-72
2022/08/15 07:05:10;;;;;;;3.45;1.50;;;21.70;85.60;;;;;;4945267;29;20081;-72
2022/08/15 07:07:45;;;;;;;3.45;1.75;;;21.80;84.30;;;;;;4962357;29;20039;-72
2022/08/15 07:10:40;;;;;;;4.25;1.70;;;21.90;84.40;;;;;;4927819;29;20252;-71
2022/08/15 07:13:18;;;;;;;2.65;1.45;;;22.10;83.10;;;;;;4943019;29;20081;-71
2022/08/15 07:16:00;;;;;;;2.20;1.20;;;22.20;82.20;;;;;;4941323;29;20029;-72
2022/08/15 07:18:44;;;;;;;2.55;1.50;;;22.10;82.70;;;;;;4945546;29;20039;-70
2022/08/15 07:21:25;;;;;;;3.05;1.73;;;22.10;82.90;;;;;;4961557;29;20042;-72
2022/08/15 07:24:10;;;;;;;4.22;1.70;;;22.10;82.60;;;;;;4944884;29;20123;-71
2022/08/15 07:26:51;;;;;;;3.30;1.63;;;22.30;82.30;;;;;;4945531;29;20101;-71
2022/08/15 07:29:37;;;;;;;3.28;1.50;;;22.40;82.10;;;;;;4962148;28;20312;-72
2022/08/15 07:32:28;;;;;;;3.28;1.75;;;22.50;81.10;;;;;;4935174;29;20038;-72
2022/08/15 07:34:59;;;;;;;3.63;1.75;;;22.60;80.90;;;;;;4962143;29;20027;-72
2022/08/15 07:37:32;;;;;;;5.75;1.50;;;22.70;80.80;;;;;;4944941;29;20052;-72
2022/08/15 07:40:03;;;;;;;3.45;1.60;;;22.90;80.10;;;;;;4944653;29;20093;-73
2022/08/15 07:42:41;;;;;;;3.72;1.65;;;23.10;78.90;;;;;;4945058;29;20042;-74
2022/08/15 07:45:41;;;;;;;2.42;1.33;;;23.50;78.30;;;;;;4945248;29;20034;-72
2022/08/15 07:48:27;;;;;;;2.90;1.35;;;24.00;77.00;;;;;;4945136;29;20035;-73
2022/08/15 07:51:18;;;;;;;3.00;1.45;;;24.30;75.40;;;;;;4944578;29;20053;-72
2022/08/15 07:54:01;;;;;;;2.78;1.13;;;24.40;74.50;;;;;;4944712;29;20027;-73
2022/08/15 07:56:58;;;;;;;1.90;1.27;;;24.70;74.00;;;;;;4957009;29;20063;-73
2022/08/15 07:59:33;;;;;;;2.90;1.38;;;24.60;73.60;;;;;;4962594;28;20040;-72
2022/08/15 08:02:25;;;;;;;3.03;1.40;;;24.30;74.20;;;;;;4921494;29;20241;-73
2022/08/15 08:04:51;;;;;;;3.60;1.25;;;24.30;74.60;;;;;;4922460;29;20036;-73
2022/08/15 08:07:25;;;;;;;2.35;1.20;;;24.60;73.90;;;;;;4922714;29;20397;-73
2022/08/15 08:10:11;;;;;;;2.75;1.23;;;24.60;73.50;;;;;;4923632;29;20055;-73
2022/08/15 08:12:47;;;;;;;3.33;1.30;;;24.60;74.00;;;;;;4924049;29;20056;-71
2022/08/15 08:15:24;;;;;;;2.78;1.10;;;24.70;73.80;;;;;;4923806;29;20243;-73
2022/08/15 08:18:18;;;;;;;3.65;1.40;;;24.70;73.50;;;;;;4921849;29;20361;-73
2022/08/15 08:21:02;;;;;;;2.35;1.20;;;24.30;74.00;;;;;;4912412;29;20058;-71
2022/08/15 08:23:40;;;;;;;2.33;1.08;;;24.20;74.40;;;;;;4922744;29;20032;-71
2022/08/15 08:26:30;;;;;;;2.67;1.20;;;24.30;73.80;;;;;;4922336;29;20028;-71
2022/08/15 08:29:22;;;;;;;2.10;1.10;;;24.10;74.10;;;;;;4922098;29;20111;-70
2022/08/15 08:32:18;;;;;;;2.17;1.08;;;24.00;74.50;;;;;;4919831;29;20055;-72
2022/08/15 08:34:50;;;;;;;2.70;1.20;;;24.00;74.70;;;;;;4905036;29;20029;-72
2022/08/15 08:37:26;;;;;;;1.70;1.00;;;24.40;73.80;;;;;;4905241;29;20033;-71
2022/08/15 08:43:24;;;;;;;3.13;1.30;;;25.00;71.80;;;;;;4907524;29;20238;-71
2022/08/15 08:46:14;;;;;;;2.57;1.10;;;24.90;71.80;;;;;;4907976;29;20047;-72
2022/08/15 08:48:49;;;;;;;2.00;1.02;;;24.90;72.60;;;;;;4908372;29;20033;-71
2022/08/15 08:51:34;;;;;;;2.65;1.20;;;25.10;71.50;;;;;;4908042;29;20406;-72
2022/08/15 08:54:26;;;;;;;4.47;1.20;;;25.30;70.70;;;;;;4907564;29;20062;-72
2022/08/15 08:56:55;;;;;;;3.20;1.02;;;25.60;69.90;;;;;;4907433;29;20247;-72
2022/08/15 08:59:41;;;;;;;1.70;1.00;;;25.70;69.50;;;;;;4912838;29;20028;-74
2022/08/15 09:02:27;;;;;;;2.78;1.30;;;26.00;68.70;;;;;;4936585;29;20289;-74
2022/08/15 09:05:08;;;;;;;2.97;1.20;;;26.20;68.10;;;;;;4964254;29;20329;-73
2022/08/15 09:07:39;;;;;;;1.60;0.90;;;26.10;67.20;;;;;;4945771;29;20040;-73
2022/08/15 09:10:07;;;;;;;2.60;1.13;;;25.90;68.00;;;;;;4961956;29;20035;-73
2022/08/15 09:15:30;;;;;;;3.17;1.40;;;25.90;68.00;;;;;;4964471;29;20030;-74
2022/08/15 09:18:04;;;;;;;3.72;1.00;;;26.20;67.60;;;;;;4947085;29;20039;-73
2022/08/15 09:20:38;;;;;;;1.63;0.90;;;26.40;66.60;;;;;;4964729;29;20091;-73
2022/08/15 09:23:10;;;;;;;2.70;1.38;;;26.40;66.60;;;;;;4963899;29;20043;-73
2022/08/15 09:25:47;;;;;;;2.80;1.58;;;26.60;68.60;;;;;;4964561;29;20042;-75
2022/08/15 09:28:41;;;;;;;2.30;1.20;;;26.70;68.40;;;;;;4964401;29;20312;-74
2022/08/15 09:31:18;;;;;;;2.67;1.38;;;26.90;67.70;;;;;;4944094;29;20051;-73
2022/08/15 09:34:00;;;;;;;2.80;1.57;;;27.00;67.60;;;;;;4964280;29;20047;-73
2022/08/15 09:36:55;;;;;;;4.05;1.60;;;27.20;67.40;;;;;;4964148;29;20305;-74
2022/08/15 09:39:39;;;;;;;3.35;1.50;;;27.50;67.20;;;;;;4931506;29;20031;-74
2022/08/15 09:42:25;;;;;;;3.22;1.70;;;27.60;67.10;;;;;;4963537;29;20078;-75
2022/08/15 09:44:54;;;;;;;3.60;1.50;;;27.50;66.60;;;;;;4963716;29;20043;-74
2022/08/15 09:47:46;;;;;;;3.40;1.50;;;27.50;66.10;;;;;;4964267;29;20040;-74
2022/08/15 09:50:48;;;;;;;3.40;1.60;;;27.30;65.80;;;;;;4960100;28;20325;-74
2022/08/15 09:53:23;;;;;;;4.32;1.98;;;27.10;66.90;;;;;;4964212;29;20059;-75
2022/08/15 09:55:50;;;;;;;2.83;1.20;;;27.00;67.30;;;;;;4963665;29;20039;-75
2022/08/15 09:58:23;;;;;;;3.67;1.30;;;26.90;66.50;;;;;;4964343;29;20139;-75
2022/08/15 10:01:08;;;;;;;3.05;1.40;;;26.70;67.20;;;;;;4946391;29;20110;-74
2022/08/15 10:03:46;;;;;;;3.05;1.38;;;27.00;66.90;;;;;;4963529;29;20046;-73
2022/08/15 10:06:23;;;;;;;2.67;1.50;;;27.30;66.10;;;;;;4963207;29;20067;-74
2022/08/15 10:08:55;;;;;;;2.78;1.65;;;27.80;64.90;;;;;;4963372;29;20198;-76
2022/08/15 10:11:32;;;;;;;2.22;1.10;;;28.10;63.80;;;;;;4963629;29;20034;-75
2022/08/15 10:14:07;;;;;;;3.42;1.20;;;28.30;63.50;;;;;;4963317;29;20046;-74
2022/08/15 10:16:39;;;;;;;3.55;1.33;;;28.50;63.00;;;;;;4963863;29;20023;-74
2022/08/15 10:19:09;;;;;;;2.97;1.35;;;28.40;62.70;;;;;;4962873;29;20039;-73
2022/08/15 10:21:40;;;;;;;2.83;1.30;;;28.30;63.10;;;;;;4963215;29;20035;-75
2022/08/15 10:24:28;;;;;;;7.20;2.17;;;28.10;63.60;;;;;;4945990;29;20137;-72
2022/08/15 10:27:08;;;;;;;3.27;1.50;;;28.20;63.60;;;;;;4963140;29;20285;-74
2022/08/15 10:29:51;;;;;;;2.72;1.38;;;28.30;63.50;;;;;;4963152;29;20313;-73
2022/08/15 10:32:22;;;;;;;3.08;1.40;;;28.30;62.40;;;;;;4963370;29;20062;-73
2022/08/15 10:34:57;;;;;;;2.63;1.50;;;28.60;62.10;;;;;;4963389;29;20111;-72
2022/08/15 10:37:40;;;;;;;3.97;2.60;;;28.80;62.10;;;;;;4963505;29;20027;-72
2022/08/15 10:40:11;;;;;;;4.15;1.98;;;29.00;62.80;;;;;;4962781;29;20051;-72
2022/08/15 10:42:49;;;;;;;2.50;1.38;;;28.90;62.70;;;;;;4963110;29;20023;-76
2022/08/15 10:45:34;;;;;;;4.10;1.20;;;28.80;62.50;;;;;;4962805;29;20033;-72
2022/08/15 10:48:28;;;;;;;3.42;1.30;;;28.80;62.30;;;;;;4962518;29;20031;-73
2022/08/15 10:51:18;;;;;;;3.30;1.60;;;28.40;62.70;;;;;;4962315;29;20369;-74
2022/08/15 10:54:13;;;;;;;3.42;1.38;;;28.20;63.40;;;;;;4963003;29;20229;-72
2022/08/15 10:56:41;;;;;;;2.80;1.58;;;28.20;63.20;;;;;;4963138;29;20019;-73
2022/08/15 10:59:18;;;;;;;2.45;1.80;;;28.40;62.60;;;;;;4962163;28;20030;-73
2022/08/15 11:01:44;;;;;;;3.42;1.40;;;28.50;62.60;;;;;;4962396;29;20035;-75
2022/08/15 11:04:35;;;;;;;2.35;1.13;;;28.70;62.10;;;;;;4962173;28;20336;-71
2022/08/15 11:07:16;;;;;;;2.58;1.40;;;29.10;60.90;;;;;;4945206;29;20305;-71
2022/08/15 11:09:42;;;;;;;3.20;1.42;;;29.30;60.20;;;;;;4962607;29;20030;-73
2022/08/15 11:12:10;;;;;;;3.50;1.40;;;29.50;60.00;;;;;;4961950;29;20043;-72
2022/08/15 11:14:43;;;;;;;6.97;1.80;;;29.90;59.40;;;;;;4962684;29;20269;-72
2022/08/15 11:17:18;;;;;;;3.17;1.20;;;30.10;58.90;;;;;;4961872;29;20098;-73
2022/08/15 11:19:49;;;;;;;5.95;1.40;;;29.90;59.20;;;;;;4962478;29;20027;-73
2022/08/15 11:22:32;;;;;;;4.80;1.50;;;29.60;59.80;;;;;;4961910;29;20046;-75
2022/08/15 11:25:11;;;;;;;6.70;1.77;;;29.30;59.70;;;;;;4929305;29;20047;-72
2022/08/15 11:27:36;;;;;;;3.83;1.40;;;29.10;60.20;;;;;;4962428;29;20217;-73
2022/08/15 11:30:06;;;;;;;6.60;2.63;;;28.90;60.50;;;;;;4944917;29;20046;-73
2022/08/15 11:32:37;;;;;;;4.25;1.40;;;28.80;61.00;;;;;;4945336;29;20054;-72
2022/08/15 11:35:27;;;;;;;3.90;1.38;;;28.90;60.60;;;;;;4961960;29;20042;-73
2022/08/15 11:37:57;;;;;;;2.05;1.00;;;30.00;59.10;;;;;;4961985;29;20043;-73
2022/08/15 11:40:26;;;;;;;2.17;1.00;;;31.40;55.80;;;;;;4962505;29;20055;-72
2022/08/15 11:42:53;;;;;;;2.00;1.20;;;32.90;53.90;;;;;;4962876;29;20097;-74
2022/08/15 11:45:26;;;;;;;8.45;6.03;;;34.40;51.40;;;;;;4962467;29;20099;-74
2022/08/15 11:48:00;;;;;;;2.03;1.25;;;35.40;50.00;;;;;;4945554;29;20086;-73
2022/08/15 11:50:35;;;;;;;3.60;1.60;;;36.50;49.40;;;;;;4962935;29;20154;-75
2022/08/15 11:53:04;;;;;;;9.10;6.60;;;37.50;48.40;;;;;;4961839;29;20380;-72
2022/08/15 11:55:30;;;;;;;4.30;1.48;;;36.80;49.30;;;;;;4962387;29;20039;-73
2022/08/15 11:58:05;;;;;;;4.53;1.20;;;36.40;48.60;;;;;;4962002;29;20217;-73
2022/08/15 12:00:39;;;;;;;2.75;1.17;;;36.60;49.00;;;;;;4963034;28;20054;-76
2022/08/15 12:03:31;;;;;;;2.13;1.10;;;36.60;48.70;;;;;;4962747;29;20055;-73
2022/08/15 12:06:19;;;;;;;2.03;1.00;;;35.80;48.40;;;;;;4959608;29;20051;-74
2022/08/15 12:08:47;;;;;;;2.20;0.98;;;35.30;49.50;;;;;;4949621;29;20142;-74
2022/08/15 12:11:12;;;;;;;;;;;36.40;49.00;;;;;;4962553;29;20047;-74
2022/08/15 12:13:40;;;;;;;2.50;0.90;;;37.70;47.50;;;;;;4953005;29;20176;-71
2022/08/15 12:16:09;;;;;;;1.35;0.77;;;37.90;46.30;;;;;;4948803;29;20323;-72
2022/08/15 12:18:36;;;;;;;2.00;0.80;;;38.50;46.30;;;;;;4966043;29;20090;-71
2022/08/15 12:21:07;;;;;;;3.58;1.20;;;39.40;46.20;;;;;;4965114;29;20047;-72
2022/08/15 12:23:52;;;;;;;2.65;1.00;;;40.40;45.30;;;;;;4946963;29;20039;-73
2022/08/15 12:26:21;;;;;;;1.90;0.88;;;40.40;44.70;;;;;;4946429;29;20040;-72
2022/08/15 12:28:47;;;;;;;2.78;1.02;;;41.00;44.30;;;;;;4946994;29;20221;-73
2022/08/15 12:31:36;;;;;;;1.83;1.00;;;41.30;44.20;;;;;;4934843;29;20027;-74
2022/08/15 12:34:17;;;;;;;2.75;1.00;;;41.50;43.90;;;;;;4946180;29;20058;-73
2022/08/15 12:36:44;;;;;;;2.08;1.00;;;41.90;43.40;;;;;;4946892;29;20036;-75
2022/08/15 12:39:11;;;;;;;3.20;1.03;;;42.20;43.80;;;;;;4954697;29;20246;-74
2022/08/15 12:41:41;;;;;;;2.95;0.95;;;43.00;43.20;;;;;;4965823;29;20965;-74
2022/08/15 12:44:17;;;;;;;3.75;1.17;;;43.30;42.80;;;;;;4965203;29;20047;-73
2022/08/15 12:46:43;;;;;;;1.85;0.95;;;44.00;42.30;;;;;;4965564;29;20324;-74
2022/08/15 12:49:09;;;;;;;3.25;0.90;;;43.60;41.80;;;;;;4964930;29;20031;-75
2022/08/15 12:51:35;;;;;;;2.35;1.00;;;42.30;42.50;;;;;;4965239;29;20039;-74
2022/08/15 12:54:00;;;;;;;1.80;1.00;;;40.30;43.50;;;;;;4965060;29;20050;-73
2022/08/15 12:56:26;;;;;;;1.67;1.00;;;38.90;44.60;;;;;;4965556;29;20023;-73
2022/08/15 12:58:52;;;;;;;2.75;1.20;;;37.90;45.50;;;;;;4965182;28;20034;-73
2022/08/15 13:01:18;;;;;;;2.58;1.10;;;36.80;46.60;;;;;;4931815;29;20043;-72
2022/08/15 13:03:45;;;;;;;2.03;1.20;;;35.90;47.50;;;;;;4964652;29;20146;-74
2022/08/15 13:06:26;;;;;;;2.50;1.20;;;34.80;48.90;;;;;;4964270;29;20062;-74
2022/08/15 13:08:54;;;;;;;3.20;1.20;;;33.80;50.20;;;;;;4965048;29;20053;-74
2022/08/15 13:11:21;;;;;;;2.85;1.40;;;33.00;51.00;;;;;;4964898;29;20063;-74
2022/08/15 13:13:47;;;;;;;3.90;1.23;;;32.60;51.80;;;;;;4965180;29;20043;-74
2022/08/15 13:16:13;;;;;;;4.22;1.40;;;32.20;52.20;;;;;;4964194;29;20317;-74
2022/08/15 13:18:39;;;;;;;2.65;1.42;;;31.80;52.40;;;;;;4947864;29;20046;-72
2022/08/15 13:23:53;;;;;;;2.75;1.40;;;31.30;53.00;;;;;;4964852;29;20042;-74
2022/08/15 13:26:22;;;;;;;3.33;1.75;;;31.30;53.40;;;;;;4964060;28;20105;-73
2022/08/15 13:28:50;;;;;;;2.88;1.50;;;31.40;54.40;;;;;;4965086;29;20233;-74
2022/08/15 13:31:18;;;;;;;3.08;1.33;;;32.80;52.20;;;;;;4964530;29;20059;-72
2022/08/15 13:33:46;;;;;;;4.60;1.50;;;33.90;50.60;;;;;;4964628;29;20257;-73
2022/08/15 13:36:16;;;;;;;4.03;1.45;;;34.10;50.20;;;;;;4964272;29;20075;-74
2022/08/15 13:38:46;;;;;;;6.35;1.50;;;34.40;50.30;;;;;;4964643;29;20086;-74
2022/08/15 13:41:18;;;;;;;2.80;1.50;;;34.90;49.20;;;;;;4964200;29;20051;-74
2022/08/15 13:43:47;;;;;;;4.38;1.48;;;37.70;47.50;;;;;;4964519;29;20218;-72
2022/08/15 13:46:21;;;;;;;4.75;1.20;;;40.40;44.90;;;;;;4965016;29;20039;-74
2022/08/15 13:48:49;;;;;;;3.33;1.40;;;41.10;43.70;;;;;;4965187;29;20421;-72
2022/08/15 13:51:25;;;;;;;1.90;1.20;;;39.50;44.10;;;;;;4965499;29;20035;-72
2022/08/15 13:53:52;;;;;;;4.22;1.30;;;37.90;45.40;;;;;;4964709;29;20032;-73
2022/08/15 13:56:18;;;;;;;3.00;1.50;;;36.50;46.60;;;;;;4964900;29;20178;-73
2022/08/15 13:58:44;;;;;;;2.33;1.35;;;35.50;48.00;;;;;;4965001;29;20049;-74
2022/08/15 14:01:12;;;;;;;3.20;1.30;;;36.70;47.40;;;;;;4945188;29;20062;-73
2022/08/15 14:03:39;;;;;;;4.20;1.30;;;39.70;45.20;;;;;;4912136;29;20066;-73
2022/08/15 14:06:06;;;;;;;3.33;1.73;;;42.30;43.10;;;;;;4958562;29;20054;-73
2022/08/15 14:08:34;;;;;;;3.17;1.23;;;44.70;41.40;;;;;;4964564;29;20045;-73
2022/08/15 14:11:00;;;;;;;3.67;1.20;;;45.20;40.50;;;;;;4964778;29;20035;-73
2022/08/15 14:13:27;;;;;;;2.95;1.33;;;46.80;39.70;;;;;;4965388;29;20027;-73
2022/08/15 14:15:54;;;;;;;2.40;1.33;;;46.80;39.40;;;;;;4952511;28;20023;-73
2022/08/15 14:18:20;;;;;;;2.08;1.17;;;45.10;40.30;;;;;;4965691;28;20058;-73
2022/08/15 14:20:46;;;;;;;3.40;1.60;;;44.70;40.30;;;;;;4965064;29;20035;-73
2022/08/15 14:23:12;;;;;;;3.03;1.23;;;43.20;41.00;;;;;;4964111;29;20216;-73
2022/08/15 14:25:39;;;;;;;2.25;1.30;;;42.20;41.90;;;;;;4964081;29;20106;-73
2022/08/15 14:28:07;;;;;;;3.03;1.30;;;41.00;42.70;;;;;;4946222;29;20308;-74
2022/08/15 14:30:33;;;;;;;5.25;1.48;;;40.30;43.10;;;;;;4964111;29;20355;-74
2022/08/15 14:33:00;;;;;;;5.18;1.45;;;38.90;44.80;;;;;;4963874;29;20031;-72
2022/08/15 14:35:27;;;;;;;2.88;1.73;;;36.40;47.20;;;;;;4963140;29;20039;-73
2022/08/15 14:37:56;;;;;;;4.70;1.70;;;34.10;50.00;;;;;;4946005;29;20039;-72
2022/08/15 14:40:27;;;;;;;4.35;1.58;;;32.40;53.20;;;;;;4963046;29;20038;-72
2022/08/15 14:42:54;;;;;;;4.28;1.70;;;31.20;55.50;;;;;;4963476;29;20317;-73
2022/08/15 14:45:20;;;;;;;5.20;1.90;;;30.10;57.30;;;;;;4963430;29;20333;-75
2022/08/15 14:47:49;;;;;;;4.03;2.10;;;29.40;58.40;;;;;;4947828;29;20106;-74
2022/08/15 14:50:18;;;;;;;4.05;2.08;;;28.80;60.00;;;;;;4960410;29;20015;-74
2022/08/15 14:52:49;;;;;;;5.30;2.00;;;28.20;62.30;;;;;;4953233;29;20047;-77
2022/08/15 14:55:17;;;;;;;5.38;2.63;;;27.60;64.00;;;;;;4960018;29;20313;-76
2022/08/15 14:57:43;;;;;;;3.75;2.28;;;27.40;65.00;;;;;;4943691;29;20032;-74
2022/08/15 15:00:13;;;;;;;3.88;2.22;;;27.10;65.40;;;;;;4949495;29;20030;-76
2022/08/15 15:02:45;;;;;;;4.43;2.20;;;26.80;65.90;;;;;;4963178;29;20098;-75
2022/08/15 15:05:11;;;;;;;4.75;2.00;;;26.60;66.40;;;;;;4964368;29;20042;-75
2022/08/15 15:07:37;;;;;;;4.43;1.83;;;26.30;67.30;;;;;;4965238;29;20058;-74
2022/08/15 15:10:05;;;;;;;5.50;1.60;;;26.00;67.60;;;;;;4965350;29;20035;-73
2022/08/15 15:12:33;;;;;;;;;;;25.50;68.80;;;;;;4966490;29;20088;-74
2022/08/15 15:14:59;;;;;;;4.20;2.17;;;25.20;69.10;;;;;;4965601;29;19914;-74
2022/08/15 15:17:25;;;;;;;7.07;2.47;;;24.80;70.90;;;;;;4963896;29;20877;-73
2022/08/15 15:19:55;;;;;;;3.55;1.73;;;24.60;71.90;;;;;;4964100;29;20131;-73
2022/08/15 15:22:21;;;;;;;4.82;1.80;;;24.50;72.20;;;;;;4962788;29;20069;-73
2022/08/15 15:24:48;;;;;;;5.05;1.88;;;24.40;72.90;;;;;;4963880;29;20135;-74
2022/08/15 15:27:14;;;;;;;4.38;1.80;;;24.30;73.00;;;;;;4963535;29;20217;-74
2022/08/15 15:29:40;;;;;;;3.28;1.70;;;24.20;73.30;;;;;;4965987;29;20295;-74
2022/08/15 15:32:06;;;;;;;2.80;1.58;;;24.00;73.80;;;;;;4946890;29;20066;-75
2022/08/15 15:34:32;;;;;;;5.25;1.60;;;23.70;74.50;;;;;;4963740;29;20034;-76
2022/08/15 15:36:57;;;;;;;4.22;2.17;;;23.70;75.00;;;;;;4963930;29;20050;-75
2022/08/15 15:39:25;;;;;;;5.45;1.60;;;23.80;75.00;;;;;;4963221;29;20221;-74
2022/08/15 15:41:51;;;;;;;4.47;1.70;;;23.90;75.00;;;;;;4963460;29;20069;-74
2022/08/15 15:44:25;;;;;;;4.45;1.55;;;24.10;74.20;;;;;;4962955;29;20062;-73
2022/08/15 15:46:59;;;;;;;3.95;1.35;;;24.10;72.40;;;;;;4962473;29;20267;-73
2022/08/15 15:49:36;;;;;;;4.10;1.10;;;24.00;72.90;;;;;;4963390;28;20059;-74
2022/08/15 15:52:05;;;;;;;3.35;1.40;;;24.30;72.20;;;;;;4967424;29;20035;-73
2022/08/15 15:54:31;;;;;;;2.38;0.95;;;24.60;70.90;;;;;;4966742;29;20217;-73
2022/08/15 15:56:57;;;;;;;3.42;1.48;;;24.50;70.80;;;;;;4966372;29;20046;-73
2022/08/15 15:59:23;;;;;;;3.30;1.30;;;24.60;70.40;;;;;;4967087;29;20034;-75
2022/08/15 16:01:49;;;;;;;3.03;1.40;;;24.80;70.40;;;;;;4967147;29;20047;-74
2022/08/15 16:04:15;;;;;;;2.58;1.00;;;25.10;69.90;;;;;;4967076;29;20094;-74
2022/08/15 16:06:41;;;;;;;3.88;1.20;;;25.10;69.10;;;;;;4966870;29;20037;-74
2022/08/15 16:09:08;;;;;;;2.35;0.90;;;25.40;68.10;;;;;;4966774;29;20098;-75
2022/08/15 16:11:41;;;;;;;2.13;0.95;;;25.90;67.10;;;;;;4967321;29;20027;-74
2022/08/15 16:14:24;;;;;;;2.40;0.90;;;27.60;63.80;;;;;;4967474;29;20077;-75
2022/08/15 16:16:58;;;;;;;2.50;1.00;;;30.70;58.00;;;;;;4966902;29;20317;-74
2022/08/15 16:19:31;;;;;;;2.38;0.80;;;33.30;53.80;;;;;;4966627;29;20043;-74
2022/08/15 16:22:18;;;;;;;1.40;0.63;;;35.10;51.20;;;;;;4966688;29;20045;-72
2022/08/15 16:25:09;;;;;;;1.83;0.82;;;37.50;49.00;;;;;;4949726;29;20039;-75
2022/08/15 16:27:55;;;;;;;2.50;0.80;;;38.90;46.00;;;;;;4966817;29;20047;-73
2022/08/15 16:30:25;;;;;;;1.65;0.70;;;38.80;45.70;;;;;;4966134;29;20071;-74
2022/08/15 16:33:09;;;;;;;1.45;0.60;;;39.30;44.90;;;;;;4966939;29;20309;-76
2022/08/15 16:35:41;;;;;;;2.08;0.60;;;40.10;44.20;;;;;;4967067;29;20031;-75
2022/08/15 16:38:19;;;;;;;1.77;0.50;;;39.60;44.40;;;;;;4967079;29;20373;-74
2022/08/15 16:40:51;;;;;;;1.33;0.60;;;39.10;44.00;;;;;;4966935;29;20055;-75
2022/08/15 16:43:31;;;;;;;1.13;0.60;;;40.20;43.70;;;;;;4966342;29;20077;-74
2022/08/15 16:46:43;;;;;;;1.67;0.52;;;41.90;42.90;;;;;;4966604;29;20195;-74
2022/08/15 16:49:48;;;;;;;1.83;0.70;;;41.70;42.20;;;;;;4966959;29;20327;-73
2022/08/15 16:52:45;;;;;;;1.30;0.50;;;42.00;41.80;;;;;;4953305;29;20090;-74
2022/08/15 16:55:40;;;;;;;2.22;0.80;;;41.10;42.60;;;;;;4966183;29;20110;-77
2022/08/15 16:58:31;;;;;;;1.40;0.55;;;38.90;44.00;;;;;;4966102;29;20035;-74
2022/08/15 17:01:24;;;;;;;1.52;0.70;;;37.80;45.20;;;;;;4965150;28;20265;-75
2022/08/15 17:04:07;;;;;;;1.80;1.08;;;35.40;47.30;;;;;;4942835;29;20297;-75
2022/08/15 17:07:02;;;;;;;2.38;0.93;;;33.30;49.80;;;;;;4927665;29;20039;-75
2022/08/15 17:09:47;;;;;;;2.17;1.00;;;31.90;52.10;;;;;;4927109;29;20095;-75
2022/08/15 17:12:22;;;;;;;3.15;1.40;;;30.40;53.80;;;;;;4927593;29;20180;-74
2022/08/15 17:15:06;;;;;;;1.70;0.80;;;29.10;55.10;;;;;;4937904;29;20036;-73
2022/08/15 17:17:46;;;;;;;4.70;0.95;;;28.40;56.30;;;;;;4937960;29;20087;-74
2022/08/15 17:20:14;;;;;;;2.08;0.90;;;27.90;56.70;;;;;;4939426;29;20092;-73
2022/08/15 17:22:50;;;;;;;3.25;1.40;;;27.50;58.00;;;;;;4934898;29;20047;-74
2022/08/15 17:25:36;;;;;;;1.67;0.90;;;27.20;58.50;;;;;;4927768;29;20064;-74
2022/08/15 17:28:08;;;;;;;2.83;0.88;;;27.00;59.10;;;;;;4928793;29;20271;-74
2022/08/15 17:30:41;;;;;;;2.50;0.90;;;26.50;59.30;;;;;;4927116;29;20039;-74
2022/08/15 17:33:34;;;;;;;2.35;1.10;;;26.20;59.30;;;;;;4927709;29;20211;-74
2022/08/15 17:36:02;;;;;;;1.98;0.70;;;26.20;59.50;;;;;;4927558;29;20055;-77
2022/08/15 17:38:30;;;;;;;1.60;0.70;;;26.00;58.50;;;;;;4925654;29;20044;-74
2022/08/15 17:41:02;;;;;;;2.83;0.80;;;25.80;58.50;;;;;;4927117;29;20095;-75
2022/08/15 17:43:32;;;;;;;2.03;0.77;;;25.70;58.10;;;;;;4926766;29;20115;-75
2022/08/15 17:46:06;;;;;;;1.65;0.63;;;25.50;58.60;;;;;;4926158;29;20231;-76
2022/08/15 17:48:50;;;;;;;2.88;0.90;;;25.30;59.20;;;;;;4925834;29;20305;-76
2022/08/15 17:51:37;;;;;;;2.42;0.95;;;25.30;58.80;;;;;;4926888;29;20032;-75
2022/08/15 17:54:44;;;;;;;1.40;0.60;;;25.30;58.70;;;;;;4927211;29;20035;-75
2022/08/15 17:57:21;;;;;;;2.75;0.85;;;25.10;58.90;;;;;;4926847;29;20199;-74
2022/08/15 17:59:55;;;;;;;1.75;0.70;;;24.70;59.50;;;;;;4927599;29;20039;-75
2022/08/15 18:02:22;;;;;;;1.75;0.90;;;24.60;60.10;;;;;;4940946;29;20070;-76
2022/08/15 18:04:50;;;;;;;2.97;0.90;;;24.40;60.80;;;;;;4965245;29;20034;-76
2022/08/15 18:07:26;;;;;;;1.52;0.90;;;24.30;61.40;;;;;;4964663;29;20050;-77
2022/08/15 18:09:56;;;;;;;2.47;1.10;;;24.30;61.90;;;;;;4948198;29;20337;-74
2022/08/15 18:12:21;;;;;;;3.20;1.10;;;24.20;62.40;;;;;;4964676;28;20181;-76
2022/08/15 18:14:48;;;;;;;2.35;1.10;;;24.00;62.70;;;;;;4964830;29;20031;-77
2022/08/15 18:17:21;;;;;;;2.53;0.90;;;23.90;63.30;;;;;;4964752;29;20147;-75
2022/08/15 18:20:23;;;;;;;1.67;1.02;;;23.90;63.80;;;;;;4964827;29;20340;-76
2022/08/15 18:22:56;;;;;;;2.15;1.10;;;23.80;64.10;;;;;;4964740;29;20039;-75
2022/08/15 18:25:29;;;;;;;2.03;0.90;;;23.70;64.40;;;;;;4964735;29;20098;-75
2022/08/15 18:27:58;;;;;;;1.73;0.82;;;23.50;64.80;;;;;;4947946;29;20186;-74
2022/08/15 18:30:31;;;;;;;2.20;1.10;;;23.50;64.90;;;;;;4964391;29;20073;-75
2022/08/15 18:33:04;;;;;;;2.55;1.10;;;23.50;65.10;;;;;;4964763;29;20039;-75
2022/08/15 18:35:37;;;;;;;3.38;0.98;;;23.50;65.30;;;;;;4964389;29;20031;-74
2022/08/15 18:38:12;;;;;;;2.67;1.33;;;23.30;65.60;;;;;;4964568;29;20053;-75
2022/08/15 18:43:48;;;;;;;2.53;1.00;;;23.10;66.20;;;;;;4964340;29;20039;-75
2022/08/15 18:46:24;;;;;;;2.70;1.20;;;23.10;66.60;;;;;;4964284;29;20046;-75